createdAt,value
2018-12-29T00:02:21.287Z,47.03
2018-12-29T00:05:04.394Z,46.50
2018-12-29T00:07:52.307Z,47.10
2018-12-29T00:10:33.407Z,43.10
2018-12-29T00:13:21.522Z,46.60
2018-12-29T00:16:03.078Z,43.23
2018-12-29T00:18:50.997Z,40.67
2018-12-29T00:21:32.191Z,46.17
2018-12-29T00:24:20.778Z,38.30
2018-12-29T00:27:01.451Z,46.50
2018-12-29T00:29:49.433Z,42.87
2018-12-29T00:32:30.550Z,42.60
2018-12-29T00:35:18.616Z,43.23
2018-12-29T00:37:59.297Z,41.40
2018-12-29T00:40:47.520Z,48.53
2018-12-29T00:43:26.398Z,45.83
2018-12-29T00:46:14.366Z,41.97
2018-12-29T00:48:54.996Z,46.27
2018-12-29T00:51:42.910Z,39.97
2018-12-29T00:54:26.516Z,43.10
2018-12-29T00:57:14.856Z,39.93
2018-12-29T00:59:55.955Z,39.70
2018-12-29T01:02:43.964Z,46.30
2018-12-29T01:05:26.714Z,38.13
2018-12-29T01:08:14.690Z,40.47
2018-12-29T01:10:55.756Z,37.13
2018-12-29T01:13:43.568Z,43.30
2018-12-29T01:16:25.823Z,40.87
2018-12-29T01:19:13.772Z,43.40
2018-12-29T01:21:56.834Z,41.17
2018-12-29T01:24:44.730Z,38.87
2018-12-29T01:27:27.376Z,38.43
2018-12-29T01:30:15.386Z,41.33
2018-12-29T01:32:56.371Z,41.67
2018-12-29T01:35:44.374Z,38.20
2018-12-29T01:38:25.677Z,44.13
2018-12-29T01:41:13.971Z,36.57
2018-12-29T01:43:56.938Z,38.43
2018-12-29T01:46:45.048Z,40.93
2018-12-29T01:49:26.009Z,40.97
2018-12-29T01:52:14.061Z,36.90
2018-12-29T01:54:56.572Z,42.23
2018-12-29T01:57:44.466Z,40.47
2018-12-29T02:00:25.201Z,38.83
2018-12-29T02:03:13.230Z,41.17
2018-12-29T02:05:54.309Z,39.93
2018-12-29T02:08:42.210Z,40.37
2018-12-29T02:11:23.377Z,38.60
2018-12-29T02:14:11.361Z,40.53
2018-12-29T02:16:52.305Z,38.33
2018-12-29T02:19:40.213Z,36.03
2018-12-29T02:22:21.107Z,40.87
2018-12-29T02:25:09.168Z,41.23
2018-12-29T02:27:50.035Z,38.23
2018-12-29T02:30:38.054Z,43.13
2018-12-29T02:33:18.902Z,36.00
2018-12-29T02:36:06.869Z,41.53
2018-12-29T02:38:45.939Z,44.07
2018-12-29T02:41:33.970Z,39.50
2018-12-29T02:44:12.878Z,41.33
2018-12-29T02:47:00.835Z,41.07
2018-12-29T02:49:41.589Z,37.73
2018-12-29T02:52:29.409Z,39.87
2018-12-29T02:55:10.407Z,40.50
2018-12-29T02:57:58.393Z,38.50
2018-12-29T03:00:39.560Z,41.77
2018-12-29T03:06:34.868Z,41.20
2018-12-29T03:09:22.858Z,38.40
2018-12-29T03:12:03.635Z,41.60
2018-12-29T03:14:51.647Z,43.03
2018-12-29T03:17:32.576Z,40.20
2018-12-29T03:20:20.699Z,43.03
2018-12-29T03:23:03.686Z,41.43
2018-12-29T03:25:51.685Z,42.87
2018-12-29T03:28:32.632Z,45.47
2018-12-29T03:31:20.584Z,44.37
2018-12-29T03:34:01.698Z,39.33
2018-12-29T03:36:49.741Z,45.00
2018-12-29T03:39:30.675Z,40.37
2018-12-29T03:42:18.865Z,43.70
2018-12-29T03:45:02.058Z,42.60
2018-12-29T03:47:49.966Z,43.37
2018-12-29T03:50:31.074Z,42.83
2018-12-29T03:53:19.483Z,49.30
2018-12-29T03:56:00.029Z,49.33
2018-12-29T03:58:48.740Z,45.17
2018-12-29T04:01:29.297Z,46.70
2018-12-29T04:04:17.304Z,41.67
2018-12-29T04:06:58.789Z,46.30
2018-12-29T04:09:46.706Z,39.50
2018-12-29T04:12:28.908Z,47.27
2018-12-29T04:15:17.078Z,49.37
2018-12-29T04:17:57.528Z,47.03
2018-12-29T04:20:45.631Z,57.87
2018-12-29T04:23:26.646Z,49.97
2018-12-29T04:26:14.954Z,54.63
2018-12-29T04:28:55.532Z,55.53
2018-12-29T04:31:43.534Z,46.03
2018-12-29T04:34:24.853Z,50.93
2018-12-29T04:37:12.933Z,47.20
2018-12-29T04:39:53.711Z,51.37
2018-12-29T04:42:41.767Z,46.23
2018-12-29T04:45:24.793Z,46.87
2018-12-29T04:48:13.203Z,55.57
2018-12-29T04:50:54.101Z,50.30
2018-12-29T04:53:41.975Z,53.57
2018-12-29T04:56:23.501Z,48.50
2018-12-29T04:59:11.743Z,49.33
2018-12-29T05:01:52.623Z,54.13
2018-12-29T05:04:40.715Z,53.40
2018-12-29T05:07:22.195Z,49.63
2018-12-29T05:10:10.097Z,51.03
2018-12-29T05:12:51.233Z,52.03
2018-12-29T05:15:39.373Z,54.63
2018-12-29T05:18:20.334Z,53.10
2018-12-29T05:21:08.340Z,51.27
2018-12-29T05:23:49.508Z,55.67
2018-12-29T05:26:37.405Z,53.70
2018-12-29T05:29:25.570Z,54.17
2018-12-29T05:32:13.512Z,48.43
2018-12-29T05:34:54.691Z,58.10
2018-12-29T05:37:42.717Z,48.10
2018-12-29T05:40:23.829Z,52.77
2018-12-29T05:43:11.778Z,49.10
2018-12-29T05:45:52.941Z,51.13
2018-12-29T05:48:40.897Z,50.20
2018-12-29T05:51:22.039Z,48.23
2018-12-29T05:54:10.026Z,48.40
2018-12-29T05:56:51.270Z,50.27
2018-12-29T05:59:39.536Z,52.27
2018-12-29T06:02:20.577Z,51.23
2018-12-29T06:05:08.666Z,59.07
2018-12-29T06:07:51.506Z,56.97
2018-12-29T06:10:39.418Z,61.47
2018-12-29T06:13:20.711Z,59.17
2018-12-29T06:16:08.605Z,60.47
2018-12-29T06:18:49.918Z,58.77
2018-12-29T06:21:37.837Z,63.43
2018-12-29T06:24:18.722Z,68.43
2018-12-29T06:27:06.896Z,62.60
2018-12-29T06:29:47.850Z,61.27
2018-12-29T06:32:35.843Z,61.73
2018-12-29T06:35:18.410Z,60.23
2018-12-29T06:38:06.710Z,60.50
2018-12-29T06:40:47.520Z,69.03
2018-12-29T06:43:35.433Z,63.20
2018-12-29T06:46:16.672Z,66.67
2018-12-29T06:49:04.746Z,55.47
2018-12-29T06:51:45.690Z,54.97
2018-12-29T06:54:33.838Z,57.67
2018-12-29T06:57:14.901Z,64.63
2018-12-29T07:00:03.638Z,57.63
2018-12-29T07:02:44.563Z,58.57
2018-12-29T07:05:32.518Z,56.67
2018-12-29T07:08:13.877Z,62.77
2018-12-29T07:11:01.840Z,60.23
2018-12-29T07:13:44.962Z,55.67
2018-12-29T07:16:33.258Z,64.97
2018-12-29T07:19:14.710Z,63.27
2018-12-29T07:22:02.647Z,64.83
2018-12-29T07:24:43.707Z,60.97
2018-12-29T07:27:31.742Z,68.33
2018-12-29T07:30:12.810Z,63.23
2018-12-29T07:33:00.782Z,56.20
2018-12-29T07:35:42.071Z,72.50
2018-12-29T07:38:31.070Z,74.17
2018-12-29T07:41:12.503Z,70.90
2018-12-29T07:44:00.596Z,61.83
2018-12-29T07:46:49.408Z,59.73
2018-12-29T07:49:33.581Z,70.63
2018-12-29T07:52:14.395Z,61.83
2018-12-29T07:55:02.429Z,64.50
2018-12-29T07:57:43.385Z,66.47
2018-12-29T08:00:31.396Z,64.93
2018-12-29T08:03:14.425Z,67.23
2018-12-29T08:05:55.911Z,69.20
2018-12-29T08:08:37.265Z,77.87
2018-12-29T08:11:18.350Z,69.07
2018-12-29T08:14:06.272Z,71.13
2018-12-29T08:16:47.336Z,72.07
2018-12-29T08:19:35.282Z,71.10
2018-12-29T08:22:14.307Z,76.47
2018-12-29T08:25:02.212Z,77.53
2018-12-29T08:27:42.690Z,74.90
2018-12-29T08:30:30.650Z,74.10
2018-12-29T08:33:13.057Z,79.87
2018-12-29T08:36:02.191Z,72.83
2018-12-29T08:38:45.012Z,72.53
2018-12-29T08:41:32.964Z,77.67
2018-12-29T08:44:12.061Z,78.87
2018-12-29T08:47:04.501Z,85.90
2018-12-29T08:49:48.661Z,82.47
2018-12-29T08:52:36.690Z,72.10
2018-12-29T08:55:17.399Z,74.67
2018-12-29T08:58:05.352Z,77.93
2018-12-29T09:00:46.524Z,76.27
2018-12-29T09:03:34.546Z,78.80
2018-12-29T09:06:15.419Z,76.77
2018-12-29T09:09:24.666Z,75.43
2018-12-29T09:12:05.619Z,65.97
2018-12-29T09:14:53.443Z,73.97
2018-12-29T09:17:36.013Z,71.50
2018-12-29T09:20:25.330Z,67.43
2018-12-29T09:23:08.355Z,70.20
2018-12-29T09:25:57.372Z,68.40
2018-12-29T09:28:39.079Z,67.00
2018-12-29T09:31:28.489Z,65.23
2018-12-29T09:34:09.897Z,67.37
2018-12-29T09:36:59.130Z,66.13
2018-12-29T09:39:39.961Z,63.60
2018-12-29T09:42:29.105Z,54.07
2018-12-29T09:45:11.567Z,62.87
2018-12-29T09:47:59.628Z,57.07
2018-12-29T09:50:40.812Z,56.30
2018-12-29T09:53:28.869Z,51.73
2018-12-29T09:56:10.232Z,53.87
2018-12-29T09:58:58.246Z,54.23
2018-12-29T10:01:39.313Z,51.30
2018-12-29T10:04:27.177Z,48.80
2018-12-29T10:07:08.260Z,54.10
2018-12-29T10:09:56.287Z,48.07
2018-12-29T10:12:37.535Z,47.83
2018-12-29T10:15:25.382Z,51.20
2018-12-29T10:18:05.920Z,46.93
2018-12-29T10:20:53.875Z,46.63
2018-12-29T10:23:36.351Z,56.27
2018-12-29T10:26:24.316Z,47.80
2018-12-29T10:29:05.605Z,48.30
2018-12-29T10:31:34.232Z,46.60
2018-12-29T10:34:15.632Z,53.07
2018-12-29T10:36:44.190Z,50.83
2018-12-29T10:39:24.884Z,46.63
2018-12-29T10:42:12.890Z,46.40
2018-12-29T10:44:54.050Z,45.83
2018-12-29T10:47:41.822Z,48.90
2018-12-29T10:50:23.224Z,48.33
2018-12-29T10:53:11.187Z,50.13
2018-12-29T10:55:51.730Z,50.47
2018-12-29T10:58:39.767Z,52.70
2018-12-29T11:01:08.430Z,54.93
2018-12-29T11:03:56.522Z,50.13
2018-12-29T11:06:37.300Z,55.00
2018-12-29T11:09:25.676Z,52.17
2018-12-29T11:12:06.483Z,52.10
2018-12-29T11:14:54.395Z,57.10
2018-12-29T11:17:42.455Z,54.53
2018-12-29T11:20:25.736Z,58.37
2018-12-29T11:23:07.032Z,50.87
2018-12-29T11:25:54.964Z,62.53
2018-12-29T11:28:36.003Z,55.47
2018-12-29T11:31:23.942Z,58.30
2018-12-29T11:33:52.825Z,53.80
2018-12-29T11:36:42.533Z,61.63
2018-12-29T11:39:23.219Z,53.53
2018-12-29T11:42:11.043Z,62.50
2018-12-29T11:44:51.783Z,61.80
2018-12-29T11:47:39.887Z,54.10
2018-12-29T11:50:20.816Z,50.33
2018-12-29T11:53:08.946Z,57.73
2018-12-29T11:55:50.323Z,57.17
2018-12-29T11:58:38.358Z,58.10
2018-12-29T12:01:19.720Z,60.30
2018-12-29T12:03:48.161Z,64.80
2018-12-29T12:06:30.778Z,54.57
2018-12-29T12:09:11.958Z,57.43
2018-12-29T12:11:52.884Z,51.27
2018-12-29T12:14:40.834Z,51.87
2018-12-29T12:17:22.341Z,51.73
2018-12-29T12:20:10.354Z,51.97
2018-12-29T12:22:52.636Z,53.90
2018-12-29T12:25:40.568Z,59.73
2018-12-29T12:28:21.818Z,54.37
2018-12-29T12:31:09.722Z,54.90
2018-12-29T12:33:38.333Z,50.20
2018-12-29T12:36:28.302Z,52.03
2018-12-29T12:39:09.564Z,52.60
2018-12-29T12:41:57.771Z,55.80
2018-12-29T12:44:38.659Z,48.57
2018-12-29T12:47:26.910Z,51.63
2018-12-29T12:50:07.711Z,49.07
2018-12-29T12:52:55.895Z,48.63
2018-12-29T12:55:26.264Z,47.70
2018-12-29T12:58:14.196Z,49.07
2018-12-29T13:00:55.026Z,50.73
2018-12-29T13:03:43.359Z,56.13
2018-12-29T13:06:24.390Z,49.90
2018-12-29T13:09:05.874Z,48.27
2018-12-29T13:11:47.174Z,48.47
2018-12-29T13:14:35.202Z,42.97
2018-12-29T13:17:37.576Z,45.60
2018-12-29T13:20:26.059Z,52.53
2018-12-29T13:23:06.636Z,47.67
2018-12-29T13:25:54.757Z,50.93
2018-12-29T13:28:35.587Z,46.33
2018-12-29T13:31:23.512Z,49.53
2018-12-29T13:34:04.852Z,45.57
2018-12-29T13:36:52.863Z,44.27
2018-12-29T13:39:33.907Z,49.30
2018-12-29T13:42:21.862Z,42.97
2018-12-29T13:45:02.947Z,45.67
2018-12-29T13:47:50.946Z,39.70
2018-12-29T13:50:31.662Z,44.73
2018-12-29T13:53:19.843Z,47.93
2018-12-29T13:56:00.815Z,48.03
2018-12-29T13:58:49.026Z,41.27
2018-12-29T14:01:30.198Z,45.67
2018-12-29T14:04:18.325Z,47.10
2018-12-29T14:06:59.289Z,47.13
2018-12-29T14:09:47.362Z,43.23
2018-12-29T14:12:28.478Z,45.70
2018-12-29T14:15:16.463Z,49.80
2018-12-29T14:18:18.852Z,36.77
2018-12-29T14:21:07.406Z,52.97
2018-12-29T14:23:48.615Z,50.57
2018-12-29T14:26:36.704Z,52.13
2018-12-29T14:29:17.527Z,55.13
2018-12-29T14:32:05.706Z,49.57
2018-12-29T14:34:46.569Z,48.83
2018-12-29T14:37:34.572Z,52.83
2018-12-29T14:40:15.837Z,58.50
2018-12-29T14:43:03.889Z,51.83
2018-12-29T14:45:45.120Z,51.67
2018-12-29T14:48:36.093Z,55.13
2018-12-29T14:51:36.300Z,53.10
2018-12-29T14:54:24.242Z,52.60
2018-12-29T14:57:05.291Z,50.27
2018-12-29T14:59:53.730Z,46.87
2018-12-29T15:02:34.682Z,46.07
2018-12-29T15:05:22.688Z,44.40
2018-12-29T15:08:03.877Z,43.17
2018-12-29T15:10:51.772Z,40.50
2018-12-29T15:13:53.937Z,44.53
2018-12-29T15:16:42.085Z,40.70
2018-12-29T15:19:22.854Z,38.37
2018-12-29T15:22:11.149Z,37.30
2018-12-29T15:24:52.331Z,44.97
2018-12-29T15:27:40.322Z,37.47
2018-12-29T15:30:21.829Z,35.33
2018-12-29T15:33:10.106Z,35.53
2018-12-29T15:35:52.483Z,37.73
2018-12-29T15:38:40.807Z,38.93
2018-12-29T15:41:21.655Z,34.13
2018-12-29T15:44:10.067Z,33.23
2018-12-29T15:46:50.804Z,31.73
2018-12-29T15:49:38.894Z,34.57
2018-12-29T15:52:20.486Z,29.70
2018-12-29T15:55:08.682Z,34.13
2018-12-29T15:57:49.064Z,33.87
2018-12-29T16:00:37.457Z,31.57
2018-12-29T16:03:40.346Z,29.63
2018-12-29T16:06:28.299Z,29.57
2018-12-29T16:09:09.336Z,23.77
2018-12-29T16:11:57.596Z,25.83
2018-12-29T16:14:38.512Z,23.47
2018-12-29T16:17:26.502Z,22.17
2018-12-29T16:20:28.699Z,22.07
2018-12-29T16:23:17.169Z,23.77
2018-12-29T16:26:19.963Z,21.53
2018-12-29T16:29:08.393Z,23.73
2018-12-29T16:31:47.398Z,21.70
2018-12-29T16:34:35.523Z,21.20
2018-12-29T16:37:16.818Z,20.93
2018-12-29T16:40:04.883Z,19.23
2018-12-29T16:43:07.648Z,18.80
2018-12-29T16:45:55.571Z,16.83
2018-12-29T16:48:36.586Z,19.63
2018-12-29T16:51:24.759Z,16.90
2018-12-29T16:54:07.730Z,20.10
2018-12-29T16:56:56.139Z,19.70
2018-12-29T16:59:56.639Z,17.73
2018-12-29T17:02:44.699Z,19.13
2018-12-29T17:05:47.251Z,21.90
2018-12-29T17:08:28.623Z,21.37
2018-12-29T17:11:09.513Z,23.07
2018-12-29T17:13:57.557Z,23.53
2018-12-29T17:16:38.834Z,23.87
2018-12-29T17:19:26.761Z,21.57
2018-12-29T17:22:07.782Z,27.30
2018-12-29T17:24:48.633Z,26.27
2018-12-29T17:27:29.846Z,24.87
2018-12-29T17:30:17.946Z,25.33
2018-12-29T17:33:20.175Z,25.50
2018-12-29T17:36:08.238Z,26.07
2018-12-29T17:38:49.029Z,27.53
2018-12-29T17:41:37.123Z,27.30
2018-12-29T17:44:18.219Z,30.53
2018-12-29T17:47:06.059Z,31.57
2018-12-29T17:49:46.961Z,33.23
2018-12-29T17:52:34.913Z,30.40
2018-12-29T17:55:37.085Z,30.73
2018-12-29T17:58:25.210Z,31.47
2018-12-29T18:01:06.354Z,30.20
2018-12-29T18:03:54.387Z,31.43
2018-12-29T18:06:35.474Z,28.40
2018-12-29T18:09:16.466Z,34.67
2018-12-29T18:11:57.581Z,27.93
2018-12-29T18:14:45.942Z,29.63
2018-12-29T18:17:26.650Z,25.80
2018-12-29T18:20:14.917Z,24.23
2018-12-29T18:22:56.039Z,25.50
2018-12-29T18:25:43.972Z,21.90
2018-12-29T18:28:27.059Z,22.33
2018-12-29T18:31:15.003Z,21.53
2018-12-29T18:33:56.119Z,25.20
2018-12-29T18:36:44.378Z,23.50
2018-12-29T18:39:25.356Z,22.77
2018-12-29T18:42:13.300Z,19.67
2018-12-29T18:44:54.525Z,22.80
2018-12-29T18:47:42.432Z,13.37
2018-12-29T18:50:23.810Z,18.50
2018-12-29T18:53:11.734Z,12.20
2018-12-29T18:55:54.812Z,12.60
2018-12-29T18:58:42.774Z,11.70
2018-12-29T19:01:23.961Z,10.70
2018-12-29T19:04:11.934Z,12.73
2018-12-29T19:06:53.039Z,5.13
2018-12-29T19:09:34.021Z,7.00
2018-12-29T19:12:15.111Z,10.17
2018-12-29T19:15:03.423Z,7.73
2018-12-29T19:17:52.281Z,11.37
2018-12-29T19:20:40.691Z,7.73
2018-12-29T19:23:43.388Z,14.43
2018-12-29T19:26:31.734Z,10.80
2018-12-29T19:29:32.298Z,12.37
2018-12-29T19:32:20.335Z,9.20
2018-12-29T19:35:23.096Z,8.20
2018-12-29T19:38:11.303Z,7.47
2018-12-29T19:41:14.184Z,10.37
2018-12-29T19:44:02.675Z,13.97
2018-12-29T19:47:05.324Z,14.70
2018-12-29T19:49:53.795Z,9.17
2018-12-29T19:52:56.361Z,11.40
2018-12-29T19:55:44.619Z,11.63
2018-12-29T19:58:26.047Z,15.87
2018-12-29T20:01:13.973Z,5.57
2018-12-29T20:03:55.120Z,7.10
2018-12-29T20:06:43.187Z,6.37
2018-12-29T20:09:24.167Z,7.37
2018-12-29T20:12:12.066Z,9.10
2018-12-29T20:15:12.436Z,7.87
2018-12-29T20:18:00.500Z,8.47
2018-12-29T20:20:41.434Z,6.97
2018-12-29T20:23:29.456Z,7.50
2018-12-29T20:26:10.799Z,5.70
2018-12-29T20:28:58.924Z,7.97
2018-12-29T20:31:39.692Z,7.73
2018-12-29T20:34:28.027Z,8.30
2018-12-29T20:37:08.965Z,5.73
2018-12-29T20:39:56.922Z,7.27
2018-12-29T20:42:59.384Z,6.90
2018-12-29T20:45:47.274Z,8.27
2018-12-29T20:48:28.236Z,5.80
2018-12-29T20:51:16.333Z,2.20
2018-12-29T20:53:57.370Z,6.53
2018-12-29T20:56:45.499Z,6.37
2018-12-29T20:59:26.702Z,5.40
2018-12-29T21:02:14.675Z,4.53
2018-12-29T21:04:55.631Z,4.30
2018-12-29T21:07:43.785Z,4.23
2018-12-29T21:10:24.765Z,4.63
2018-12-29T21:13:12.698Z,5.10
2018-12-29T21:15:54.022Z,5.00
2018-12-29T21:18:41.924Z,6.93
2018-12-29T21:21:22.797Z,6.50
2018-12-29T21:24:12.301Z,4.70
2018-12-29T21:27:13.008Z,5.47
2018-12-29T21:30:01.098Z,9.80
2018-12-29T21:33:03.119Z,7.13
2018-12-29T21:35:51.184Z,7.93
2018-12-29T21:38:32.506Z,8.47
2018-12-29T21:41:20.509Z,9.33
2018-12-29T21:44:22.453Z,6.40
2018-12-29T21:47:10.522Z,6.87
2018-12-29T21:49:51.575Z,10.07
2018-12-29T21:52:39.438Z,14.60
2018-12-29T21:55:20.624Z,9.73
2018-12-29T21:58:08.699Z,9.90
2018-12-29T22:00:49.785Z,12.73
2018-12-29T22:03:37.769Z,11.77
2018-12-29T22:06:18.995Z,11.33
2018-12-29T22:09:00.078Z,8.70
2018-12-29T22:11:40.949Z,10.23
2018-12-29T22:14:21.810Z,9.70
2018-12-29T22:17:09.765Z,7.40
2018-12-29T22:19:50.889Z,9.37
2018-12-29T22:22:38.960Z,8.43
2018-12-29T22:25:19.873Z,6.33
2018-12-29T22:28:07.726Z,4.73
2018-12-29T22:30:48.877Z,6.03
2018-12-29T22:33:37.070Z,8.73
2018-12-29T22:36:27.128Z,7.53
2018-12-29T22:39:15.346Z,4.57
2018-12-29T22:42:04.243Z,4.23
2018-12-29T22:44:52.301Z,6.43
2018-12-29T22:47:33.204Z,5.60
2018-12-29T22:50:21.286Z,3.43
2018-12-29T22:53:02.722Z,8.57
2018-12-29T22:55:50.949Z,4.13
2018-12-29T22:58:31.845Z,5.00
2018-12-29T23:01:00.678Z,5.10
2018-12-29T23:04:03.125Z,10.73
2018-12-29T23:06:51.169Z,5.63
2018-12-29T23:09:34.342Z,4.87
2018-12-29T23:12:22.213Z,5.57
2018-12-29T23:15:03.585Z,4.37
2018-12-29T23:17:51.742Z,6.33
2018-12-29T23:20:32.976Z,6.17
2018-12-29T23:23:20.798Z,8.47
2018-12-29T23:26:23.178Z,7.70
2018-12-29T23:29:11.095Z,10.13
2018-12-29T23:31:52.189Z,5.30
2018-12-29T23:34:40.203Z,14.53
2018-12-29T23:37:22.805Z,6.70
2018-12-29T23:40:11.030Z,6.77
2018-12-29T23:42:52.053Z,5.13
2018-12-29T23:45:40.321Z,5.80
2018-12-29T23:48:21.747Z,5.97
2018-12-29T23:51:09.688Z,8.47
2018-12-29T23:53:52.044Z,4.13
2018-12-29T23:56:40.312Z,1.43
2018-12-29T23:59:21.091Z,2.93
